sensor_id;sensor_type;location;lat;lon;timestamp;P1;durP1;ratioP1;P2;durP2;ratioP2
57846;SDS011;43675;50.030;21.952;2022-08-19T00:00:53;36.75;;;33.20;;
57846;SDS011;43675;50.030;21.952;2022-08-19T00:03:19;37.40;;;33.92;;
57846;SDS011;43675;50.030;21.952;2022-08-19T00:05:44;37.45;;;34.03;;
57846;SDS011;43675;50.030;21.952;2022-08-19T00:08:10;38.60;;;34.95;;
57846;SDS011;43675;50.030;21.952;2022-08-19T00:10:42;37.67;;;34.08;;
57846;SDS011;43675;50.030;21.952;2022-08-19T00:13:08;37.85;;;34.25;;
57846;SDS011;43675;50.030;21.952;2022-08-19T00:15:34;38.38;;;34.60;;
57846;SDS011;43675;50.030;21.952;2022-08-19T00:17:59;37.80;;;34.27;;
57846;SDS011;43675;50.030;21.952;2022-08-19T00:20:25;39.35;;;35.52;;
57846;SDS011;43675;50.030;21.952;2022-08-19T00:22:58;39.40;;;35.70;;
57846;SDS011;43675;50.030;21.952;2022-08-19T00:25:23;39.30;;;35.50;;
57846;SDS011;43675;50.030;21.952;2022-08-19T00:27:49;39.45;;;35.58;;
57846;SDS011;43675;50.030;21.952;2022-08-19T00:30:15;40.75;;;36.28;;
57846;SDS011;43675;50.030;21.952;2022-08-19T00:32:40;39.60;;;35.83;;
57846;SDS011;43675;50.030;21.952;2022-08-19T00:35:06;38.33;;;34.50;;
57846;SDS011;43675;50.030;21.952;2022-08-19T00:37:33;38.85;;;35.05;;
57846;SDS011;43675;50.030;21.952;2022-08-19T00:39:58;39.33;;;35.28;;
57846;SDS011;43675;50.030;21.952;2022-08-19T00:42:24;39.08;;;35.68;;
57846;SDS011;43675;50.030;21.952;2022-08-19T00:44:50;39.80;;;35.73;;
57846;SDS011;43675;50.030;21.952;2022-08-19T00:47:15;39.50;;;35.80;;
57846;SDS011;43675;50.030;21.952;2022-08-19T00:49:47;40.48;;;36.45;;
57846;SDS011;43675;50.030;21.952;2022-08-19T00:52:15;40.15;;;36.15;;
57846;SDS011;43675;50.030;21.952;2022-08-19T00:54:43;39.38;;;35.83;;
57846;SDS011;43675;50.030;21.952;2022-08-19T00:57:12;39.67;;;35.75;;
57846;SDS011;43675;50.030;21.952;2022-08-19T00:59:47;39.83;;;35.90;;
57846;SDS011;43675;50.030;21.952;2022-08-19T01:02:16;40.05;;;35.98;;
57846;SDS011;43675;50.030;21.952;2022-08-19T01:04:42;38.53;;;35.10;;
57846;SDS011;43675;50.030;21.952;2022-08-19T01:07:07;39.20;;;35.65;;
57846;SDS011;43675;50.030;21.952;2022-08-19T01:09:33;40.33;;;36.40;;
57846;SDS011;43675;50.030;21.952;2022-08-19T01:12:05;40.55;;;36.48;;
57846;SDS011;43675;50.030;21.952;2022-08-19T01:14:32;39.67;;;35.43;;
57846;SDS011;43675;50.030;21.952;2022-08-19T01:16:58;39.40;;;35.85;;
57846;SDS011;43675;50.030;21.952;2022-08-19T01:19:27;39.73;;;35.95;;
57846;SDS011;43675;50.030;21.952;2022-08-19T01:21:55;41.28;;;37.17;;
57846;SDS011;43675;50.030;21.952;2022-08-19T01:24:39;39.85;;;36.05;;
57846;SDS011;43675;50.030;21.952;2022-08-19T01:27:05;39.05;;;35.40;;
57846;SDS011;43675;50.030;21.952;2022-08-19T01:29:39;39.45;;;35.63;;
57846;SDS011;43675;50.030;21.952;2022-08-19T01:32:07;39.35;;;35.70;;
57846;SDS011;43675;50.030;21.952;2022-08-19T01:37:07;39.38;;;35.78;;
57846;SDS011;43675;50.030;21.952;2022-08-19T01:39:34;38.60;;;34.88;;
57846;SDS011;43675;50.030;21.952;2022-08-19T01:42:00;40.73;;;36.73;;
57846;SDS011;43675;50.030;21.952;2022-08-19T01:44:26;39.08;;;35.10;;
57846;SDS011;43675;50.030;21.952;2022-08-19T01:46:51;39.83;;;36.00;;
57846;SDS011;43675;50.030;21.952;2022-08-19T01:49:18;39.45;;;35.33;;
57846;SDS011;43675;50.030;21.952;2022-08-19T01:51:45;38.60;;;34.92;;
57846;SDS011;43675;50.030;21.952;2022-08-19T01:54:13;39.73;;;35.95;;
57846;SDS011;43675;50.030;21.952;2022-08-19T01:56:40;40.43;;;36.68;;
57846;SDS011;43675;50.030;21.952;2022-08-19T01:59:08;39.58;;;35.95;;
57846;SDS011;43675;50.030;21.952;2022-08-19T02:01:37;39.95;;;36.25;;
57846;SDS011;43675;50.030;21.952;2022-08-19T02:04:03;40.52;;;36.77;;
57846;SDS011;43675;50.030;21.952;2022-08-19T02:06:29;41.08;;;36.65;;
57846;SDS011;43675;50.030;21.952;2022-08-19T02:08:55;39.55;;;35.90;;
57846;SDS011;43675;50.030;21.952;2022-08-19T02:11:22;40.83;;;36.73;;
57846;SDS011;43675;50.030;21.952;2022-08-19T02:13:56;40.38;;;36.68;;
57846;SDS011;43675;50.030;21.952;2022-08-19T02:16:22;40.48;;;36.53;;
57846;SDS011;43675;50.030;21.952;2022-08-19T02:18:47;40.15;;;36.13;;
57846;SDS011;43675;50.030;21.952;2022-08-19T02:21:14;39.92;;;36.23;;
57846;SDS011;43675;50.030;21.952;2022-08-19T02:23:41;42.20;;;38.28;;
57846;SDS011;43675;50.030;21.952;2022-08-19T02:26:08;41.18;;;37.58;;
57846;SDS011;43675;50.030;21.952;2022-08-19T02:28:34;42.08;;;37.83;;
57846;SDS011;43675;50.030;21.952;2022-08-19T02:31:00;41.53;;;37.75;;
57846;SDS011;43675;50.030;21.952;2022-08-19T02:33:26;42.33;;;38.10;;
57846;SDS011;43675;50.030;21.952;2022-08-19T02:35:59;44.75;;;40.38;;
57846;SDS011;43675;50.030;21.952;2022-08-19T02:38:24;41.90;;;37.88;;
57846;SDS011;43675;50.030;21.952;2022-08-19T02:40:51;42.13;;;38.02;;
57846;SDS011;43675;50.030;21.952;2022-08-19T02:43:19;42.90;;;38.78;;
57846;SDS011;43675;50.030;21.952;2022-08-19T02:45:45;43.52;;;39.20;;
57846;SDS011;43675;50.030;21.952;2022-08-19T02:48:11;43.73;;;39.55;;
57846;SDS011;43675;50.030;21.952;2022-08-19T02:50:38;42.93;;;38.80;;
57846;SDS011;43675;50.030;21.952;2022-08-19T02:53:11;44.13;;;39.90;;
57846;SDS011;43675;50.030;21.952;2022-08-19T02:55:44;44.45;;;40.08;;
57846;SDS011;43675;50.030;21.952;2022-08-19T02:58:11;44.20;;;39.70;;
57846;SDS011;43675;50.030;21.952;2022-08-19T03:00:41;43.55;;;39.33;;
57846;SDS011;43675;50.030;21.952;2022-08-19T03:03:11;41.68;;;37.50;;
57846;SDS011;43675;50.030;21.952;2022-08-19T03:05:37;41.85;;;38.15;;
57846;SDS011;43675;50.030;21.952;2022-08-19T03:08:04;44.10;;;39.65;;
57846;SDS011;43675;50.030;21.952;2022-08-19T03:10:30;42.08;;;38.17;;
57846;SDS011;43675;50.030;21.952;2022-08-19T03:12:56;41.92;;;37.93;;
57846;SDS011;43675;50.030;21.952;2022-08-19T03:15:21;40.50;;;36.88;;
57846;SDS011;43675;50.030;21.952;2022-08-19T03:17:47;41.92;;;37.75;;
57846;SDS011;43675;50.030;21.952;2022-08-19T03:20:13;43.08;;;38.30;;
57846;SDS011;43675;50.030;21.952;2022-08-19T03:22:38;42.35;;;38.35;;
57846;SDS011;43675;50.030;21.952;2022-08-19T03:25:10;41.30;;;37.10;;
57846;SDS011;43675;50.030;21.952;2022-08-19T03:27:36;42.93;;;38.53;;
57846;SDS011;43675;50.030;21.952;2022-08-19T03:30:02;45.92;;;41.37;;
57846;SDS011;43675;50.030;21.952;2022-08-19T03:32:34;43.55;;;39.35;;
57846;SDS011;43675;50.030;21.952;2022-08-19T03:35:00;43.48;;;39.40;;
57846;SDS011;43675;50.030;21.952;2022-08-19T03:37:25;43.38;;;38.92;;
57846;SDS011;43675;50.030;21.952;2022-08-19T03:39:51;43.08;;;38.53;;
57846;SDS011;43675;50.030;21.952;2022-08-19T03:42:16;42.53;;;38.48;;
57846;SDS011;43675;50.030;21.952;2022-08-19T03:44:42;42.23;;;37.83;;
57846;SDS011;43675;50.030;21.952;2022-08-19T03:47:15;42.15;;;37.95;;
57846;SDS011;43675;50.030;21.952;2022-08-19T03:49:40;42.30;;;37.95;;
57846;SDS011;43675;50.030;21.952;2022-08-19T03:52:06;42.15;;;37.65;;
57846;SDS011;43675;50.030;21.952;2022-08-19T03:54:38;41.63;;;37.73;;
57846;SDS011;43675;50.030;21.952;2022-08-19T03:57:04;40.80;;;36.68;;
57846;SDS011;43675;50.030;21.952;2022-08-19T03:59:31;41.58;;;37.78;;
57846;SDS011;43675;50.030;21.952;2022-08-19T04:02:00;41.53;;;37.58;;
57846;SDS011;43675;50.030;21.952;2022-08-19T04:04:28;41.00;;;37.10;;
57846;SDS011;43675;50.030;21.952;2022-08-19T04:06:54;42.27;;;38.02;;
57846;SDS011;43675;50.030;21.952;2022-08-19T04:09:21;39.67;;;35.50;;
57846;SDS011;43675;50.030;21.952;2022-08-19T04:11:48;39.48;;;35.63;;
57846;SDS011;43675;50.030;21.952;2022-08-19T04:14:18;38.70;;;35.00;;
57846;SDS011;43675;50.030;21.952;2022-08-19T04:16:51;39.65;;;35.75;;
57846;SDS011;43675;50.030;21.952;2022-08-19T04:19:24;37.78;;;34.27;;
57846;SDS011;43675;50.030;21.952;2022-08-19T04:21:52;36.15;;;32.65;;
57846;SDS011;43675;50.030;21.952;2022-08-19T04:24:19;36.45;;;33.05;;
57846;SDS011;43675;50.030;21.952;2022-08-19T04:26:46;35.17;;;31.90;;
57846;SDS011;43675;50.030;21.952;2022-08-19T04:29:17;35.98;;;32.58;;
57846;SDS011;43675;50.030;21.952;2022-08-19T04:31:49;33.88;;;30.40;;
57846;SDS011;43675;50.030;21.952;2022-08-19T04:34:16;34.38;;;30.40;;
57846;SDS011;43675;50.030;21.952;2022-08-19T04:36:44;33.28;;;30.37;;
57846;SDS011;43675;50.030;21.952;2022-08-19T04:39:11;32.50;;;29.37;;
57846;SDS011;43675;50.030;21.952;2022-08-19T04:41:39;31.80;;;28.62;;
57846;SDS011;43675;50.030;21.952;2022-08-19T04:44:04;31.57;;;28.38;;
57846;SDS011;43675;50.030;21.952;2022-08-19T04:46:31;31.17;;;28.02;;
57846;SDS011;43675;50.030;21.952;2022-08-19T04:49:02;30.02;;;27.30;;
57846;SDS011;43675;50.030;21.952;2022-08-19T04:51:25;30.08;;;27.37;;
57846;SDS011;43675;50.030;21.952;2022-08-19T04:53:50;29.48;;;26.75;;
57846;SDS011;43675;50.030;21.952;2022-08-19T04:56:17;30.08;;;27.20;;
57846;SDS011;43675;50.030;21.952;2022-08-19T04:58:44;30.57;;;27.35;;
57846;SDS011;43675;50.030;21.952;2022-08-19T05:01:29;29.65;;;26.55;;
57846;SDS011;43675;50.030;21.952;2022-08-19T05:03:45;28.15;;;25.65;;
57846;SDS011;43675;50.030;21.952;2022-08-19T05:06:12;28.50;;;25.72;;
57846;SDS011;43675;50.030;21.952;2022-08-19T05:08:40;28.32;;;25.60;;
57846;SDS011;43675;50.030;21.952;2022-08-19T05:11:08;27.65;;;25.02;;
57846;SDS011;43675;50.030;21.952;2022-08-19T05:13:39;27.62;;;25.00;;
57846;SDS011;43675;50.030;21.952;2022-08-19T05:16:05;27.98;;;25.25;;
57846;SDS011;43675;50.030;21.952;2022-08-19T05:18:31;28.05;;;25.55;;
57846;SDS011;43675;50.030;21.952;2022-08-19T05:21:07;28.27;;;25.52;;
57846;SDS011;43675;50.030;21.952;2022-08-19T05:23:35;27.40;;;24.90;;
57846;SDS011;43675;50.030;21.952;2022-08-19T05:26:00;27.15;;;24.60;;
57846;SDS011;43675;50.030;21.952;2022-08-19T05:28:26;27.40;;;24.57;;
57846;SDS011;43675;50.030;21.952;2022-08-19T05:30:59;27.20;;;24.65;;
57846;SDS011;43675;50.030;21.952;2022-08-19T05:33:24;27.35;;;24.63;;
57846;SDS011;43675;50.030;21.952;2022-08-19T05:35:50;26.70;;;24.00;;
57846;SDS011;43675;50.030;21.952;2022-08-19T05:38:16;26.10;;;23.70;;
57846;SDS011;43675;50.030;21.952;2022-08-19T05:40:43;26.42;;;24.00;;
57846;SDS011;43675;50.030;21.952;2022-08-19T05:43:08;27.93;;;24.95;;
57846;SDS011;43675;50.030;21.952;2022-08-19T05:45:38;26.55;;;24.15;;
57846;SDS011;43675;50.030;21.952;2022-08-19T05:48:05;27.27;;;24.55;;
57846;SDS011;43675;50.030;21.952;2022-08-19T05:50:31;27.17;;;24.55;;
57846;SDS011;43675;50.030;21.952;2022-08-19T05:52:56;26.02;;;23.77;;
57846;SDS011;43675;50.030;21.952;2022-08-19T05:55:22;25.92;;;23.40;;
57846;SDS011;43675;50.030;21.952;2022-08-19T05:57:48;27.17;;;24.45;;
57846;SDS011;43675;50.030;21.952;2022-08-19T06:00:13;26.90;;;24.43;;
57846;SDS011;43675;50.030;21.952;2022-08-19T06:02:40;26.35;;;23.50;;
57846;SDS011;43675;50.030;21.952;2022-08-19T06:05:06;27.45;;;24.63;;
57846;SDS011;43675;50.030;21.952;2022-08-19T06:07:32;26.17;;;23.73;;
57846;SDS011;43675;50.030;21.952;2022-08-19T06:10:06;26.80;;;24.10;;
57846;SDS011;43675;50.030;21.952;2022-08-19T06:12:34;26.25;;;23.55;;
57846;SDS011;43675;50.030;21.952;2022-08-19T06:15:02;26.25;;;23.75;;
57846;SDS011;43675;50.030;21.952;2022-08-19T06:17:36;26.12;;;23.32;;
57846;SDS011;43675;50.030;21.952;2022-08-19T06:20:06;26.17;;;23.70;;
57846;SDS011;43675;50.030;21.952;2022-08-19T06:22:36;26.35;;;23.57;;
57846;SDS011;43675;50.030;21.952;2022-08-19T06:25:03;27.00;;;24.27;;
57846;SDS011;43675;50.030;21.952;2022-08-19T06:27:29;25.52;;;23.15;;
57846;SDS011;43675;50.030;21.952;2022-08-19T06:29:55;25.88;;;23.18;;
57846;SDS011;43675;50.030;21.952;2022-08-19T06:32:21;26.50;;;23.83;;
57846;SDS011;43675;50.030;21.952;2022-08-19T06:34:53;26.62;;;23.62;;
57846;SDS011;43675;50.030;21.952;2022-08-19T06:37:19;24.77;;;22.55;;
57846;SDS011;43675;50.030;21.952;2022-08-19T06:39:52;26.45;;;23.30;;
57846;SDS011;43675;50.030;21.952;2022-08-19T06:42:17;24.87;;;22.65;;
57846;SDS011;43675;50.030;21.952;2022-08-19T06:44:43;25.75;;;23.32;;
57846;SDS011;43675;50.030;21.952;2022-08-19T06:47:12;24.82;;;22.45;;
57846;SDS011;43675;50.030;21.952;2022-08-19T06:49:39;24.47;;;22.27;;
57846;SDS011;43675;50.030;21.952;2022-08-19T06:52:05;24.02;;;21.73;;
57846;SDS011;43675;50.030;21.952;2022-08-19T06:54:38;23.73;;;21.48;;
57846;SDS011;43675;50.030;21.952;2022-08-19T06:57:05;23.02;;;20.92;;
57846;SDS011;43675;50.030;21.952;2022-08-19T06:59:31;23.07;;;20.88;;
57846;SDS011;43675;50.030;21.952;2022-08-19T07:01:58;22.98;;;20.88;;
57846;SDS011;43675;50.030;21.952;2022-08-19T07:04:27;22.77;;;20.88;;
57846;SDS011;43675;50.030;21.952;2022-08-19T07:07:08;21.97;;;19.92;;
57846;SDS011;43675;50.030;21.952;2022-08-19T07:09:37;24.25;;;21.82;;
57846;SDS011;43675;50.030;21.952;2022-08-19T07:12:04;23.10;;;20.77;;
57846;SDS011;43675;50.030;21.952;2022-08-19T07:14:32;22.67;;;20.57;;
57846;SDS011;43675;50.030;21.952;2022-08-19T07:16:58;22.85;;;20.68;;
57846;SDS011;43675;50.030;21.952;2022-08-19T07:19:25;23.60;;;20.97;;
57846;SDS011;43675;50.030;21.952;2022-08-19T07:21:51;22.22;;;20.27;;
57846;SDS011;43675;50.030;21.952;2022-08-19T07:24:18;22.87;;;20.77;;
57846;SDS011;43675;50.030;21.952;2022-08-19T07:26:45;22.90;;;20.43;;
57846;SDS011;43675;50.030;21.952;2022-08-19T07:29:11;22.55;;;20.35;;
57846;SDS011;43675;50.030;21.952;2022-08-19T07:31:37;23.32;;;21.42;;
57846;SDS011;43675;50.030;21.952;2022-08-19T07:34:04;24.00;;;22.00;;
57846;SDS011;43675;50.030;21.952;2022-08-19T07:36:39;23.87;;;21.48;;
57846;SDS011;43675;50.030;21.952;2022-08-19T07:39:07;23.10;;;21.17;;
57846;SDS011;43675;50.030;21.952;2022-08-19T07:41:35;22.98;;;20.68;;
57846;SDS011;43675;50.030;21.952;2022-08-19T07:44:01;22.93;;;20.80;;
57846;SDS011;43675;50.030;21.952;2022-08-19T07:46:28;23.77;;;21.75;;
57846;SDS011;43675;50.030;21.952;2022-08-19T07:48:58;23.07;;;20.95;;
57846;SDS011;43675;50.030;21.952;2022-08-19T07:51:24;23.57;;;21.00;;
57846;SDS011;43675;50.030;21.952;2022-08-19T07:53:50;23.07;;;20.68;;
57846;SDS011;43675;50.030;21.952;2022-08-19T07:56:23;22.93;;;20.77;;
57846;SDS011;43675;50.030;21.952;2022-08-19T07:58:49;24.23;;;22.13;;
57846;SDS011;43675;50.030;21.952;2022-08-19T08:01:18;24.15;;;21.33;;
57846;SDS011;43675;50.030;21.952;2022-08-19T08:03:45;22.82;;;20.72;;
57846;SDS011;43675;50.030;21.952;2022-08-19T08:06:19;23.70;;;21.25;;
57846;SDS011;43675;50.030;21.952;2022-08-19T08:08:44;22.15;;;20.37;;
57846;SDS011;43675;50.030;21.952;2022-08-19T08:11:10;22.87;;;20.60;;
57846;SDS011;43675;50.030;21.952;2022-08-19T08:13:37;22.75;;;20.82;;
57846;SDS011;43675;50.030;21.952;2022-08-19T08:16:02;22.40;;;20.20;;
57846;SDS011;43675;50.030;21.952;2022-08-19T08:18:29;21.68;;;19.95;;
57846;SDS011;43675;50.030;21.952;2022-08-19T08:20:55;22.05;;;20.25;;
57846;SDS011;43675;50.030;21.952;2022-08-19T08:23:22;22.25;;;20.35;;
57846;SDS011;43675;50.030;21.952;2022-08-19T08:25:48;22.17;;;20.27;;
57846;SDS011;43675;50.030;21.952;2022-08-19T08:28:15;22.22;;;20.32;;
57846;SDS011;43675;50.030;21.952;2022-08-19T08:30:43;21.93;;;19.87;;
57846;SDS011;43675;50.030;21.952;2022-08-19T08:33:09;22.65;;;20.70;;
57846;SDS011;43675;50.030;21.952;2022-08-19T08:35:35;21.85;;;20.08;;
57846;SDS011;43675;50.030;21.952;2022-08-19T08:38:08;22.65;;;20.40;;
57846;SDS011;43675;50.030;21.952;2022-08-19T08:40:44;22.15;;;20.17;;
57846;SDS011;43675;50.030;21.952;2022-08-19T08:46:04;22.55;;;20.50;;
57846;SDS011;43675;50.030;21.952;2022-08-19T08:51:32;22.65;;;20.95;;
57846;SDS011;43675;50.030;21.952;2022-08-19T08:53:54;21.85;;;19.95;;
57846;SDS011;43675;50.030;21.952;2022-08-19T08:56:21;22.82;;;20.77;;
57846;SDS011;43675;50.030;21.952;2022-08-19T08:59:03;21.87;;;19.87;;
57846;SDS011;43675;50.030;21.952;2022-08-19T09:01:28;21.97;;;20.17;;
57846;SDS011;43675;50.030;21.952;2022-08-19T09:03:54;22.77;;;20.97;;
57846;SDS011;43675;50.030;21.952;2022-08-19T09:14:32;22.37;;;20.37;;
57846;SDS011;43675;50.030;21.952;2022-08-19T09:16:57;22.75;;;20.75;;
57846;SDS011;43675;50.030;21.952;2022-08-19T09:19:23;22.55;;;20.68;;
57846;SDS011;43675;50.030;21.952;2022-08-19T09:21:49;21.93;;;20.23;;
57846;SDS011;43675;50.030;21.952;2022-08-19T09:24:14;22.37;;;20.50;;
57846;SDS011;43675;50.030;21.952;2022-08-19T09:26:40;22.35;;;20.50;;
57846;SDS011;43675;50.030;21.952;2022-08-19T09:29:06;22.80;;;20.88;;
57846;SDS011;43675;50.030;21.952;2022-08-19T09:31:31;22.50;;;20.60;;
57846;SDS011;43675;50.030;21.952;2022-08-19T09:33:57;23.42;;;21.62;;
57846;SDS011;43675;50.030;21.952;2022-08-19T09:36:24;21.12;;;19.42;;
57846;SDS011;43675;50.030;21.952;2022-08-19T09:38:58;21.85;;;20.05;;
57846;SDS011;43675;50.030;21.952;2022-08-19T09:41:24;21.07;;;19.48;;
57846;SDS011;43675;50.030;21.952;2022-08-19T09:43:51;22.15;;;20.35;;
57846;SDS011;43675;50.030;21.952;2022-08-19T09:46:19;21.87;;;19.98;;
57846;SDS011;43675;50.030;21.952;2022-08-19T09:48:45;22.42;;;20.48;;
57846;SDS011;43675;50.030;21.952;2022-08-19T09:51:12;21.35;;;19.60;;
57846;SDS011;43675;50.030;21.952;2022-08-19T09:53:39;21.90;;;20.20;;
57846;SDS011;43675;50.030;21.952;2022-08-19T09:56:11;21.65;;;19.70;;
57846;SDS011;43675;50.030;21.952;2022-08-19T09:58:39;21.42;;;19.85;;
57846;SDS011;43675;50.030;21.952;2022-08-19T10:01:06;21.25;;;19.50;;
57846;SDS011;43675;50.030;21.952;2022-08-19T10:03:32;20.97;;;19.37;;
57846;SDS011;43675;50.030;21.952;2022-08-19T10:06:00;21.73;;;20.02;;
57846;SDS011;43675;50.030;21.952;2022-08-19T10:08:30;21.93;;;20.02;;
57846;SDS011;43675;50.030;21.952;2022-08-19T10:10:58;21.20;;;19.60;;
57846;SDS011;43675;50.030;21.952;2022-08-19T10:13:25;22.05;;;20.17;;
57846;SDS011;43675;50.030;21.952;2022-08-19T10:15:53;20.80;;;19.30;;
57846;SDS011;43675;50.030;21.952;2022-08-19T10:18:21;20.90;;;19.40;;
57846;SDS011;43675;50.030;21.952;2022-08-19T10:20:49;21.23;;;19.73;;
57846;SDS011;43675;50.030;21.952;2022-08-19T10:23:16;21.23;;;19.40;;
57846;SDS011;43675;50.030;21.952;2022-08-19T10:25:43;20.95;;;19.17;;
57846;SDS011;43675;50.030;21.952;2022-08-19T10:28:08;21.45;;;19.67;;
57846;SDS011;43675;50.030;21.952;2022-08-19T10:30:35;21.35;;;19.65;;
57846;SDS011;43675;50.030;21.952;2022-08-19T10:33:01;20.88;;;19.30;;
57846;SDS011;43675;50.030;21.952;2022-08-19T10:35:26;21.33;;;19.52;;
57846;SDS011;43675;50.030;21.952;2022-08-19T10:37:52;21.40;;;19.70;;
57846;SDS011;43675;50.030;21.952;2022-08-19T10:40:28;21.80;;;20.02;;
57846;SDS011;43675;50.030;21.952;2022-08-19T10:42:53;21.27;;;19.67;;
57846;SDS011;43675;50.030;21.952;2022-08-19T10:45:20;20.65;;;19.00;;
57846;SDS011;43675;50.030;21.952;2022-08-19T10:47:46;21.10;;;19.45;;
57846;SDS011;43675;50.030;21.952;2022-08-19T10:50:11;20.37;;;18.77;;
57846;SDS011;43675;50.030;21.952;2022-08-19T10:52:37;20.17;;;18.48;;
57846;SDS011;43675;50.030;21.952;2022-08-19T10:55:05;19.07;;;17.73;;
57846;SDS011;43675;50.030;21.952;2022-08-19T10:57:38;20.17;;;18.57;;
57846;SDS011;43675;50.030;21.952;2022-08-19T11:00:03;19.02;;;17.52;;
57846;SDS011;43675;50.030;21.952;2022-08-19T11:02:30;19.07;;;17.17;;
57846;SDS011;43675;50.030;21.952;2022-08-19T11:04:56;19.10;;;17.60;;
57846;SDS011;43675;50.030;21.952;2022-08-19T11:07:21;19.37;;;17.77;;
57846;SDS011;43675;50.030;21.952;2022-08-19T11:09:53;20.70;;;18.98;;
57846;SDS011;43675;50.030;21.952;2022-08-19T11:12:19;18.42;;;17.12;;
57846;SDS011;43675;50.030;21.952;2022-08-19T11:14:44;19.35;;;17.82;;
57846;SDS011;43675;50.030;21.952;2022-08-19T11:17:10;19.00;;;17.60;;
57846;SDS011;43675;50.030;21.952;2022-08-19T11:19:36;18.67;;;17.37;;
57846;SDS011;43675;50.030;21.952;2022-08-19T11:22:01;19.25;;;17.65;;
57846;SDS011;43675;50.030;21.952;2022-08-19T11:24:27;20.23;;;18.73;;
57846;SDS011;43675;50.030;21.952;2022-08-19T11:27:05;20.65;;;18.90;;
57846;SDS011;43675;50.030;21.952;2022-08-19T11:29:39;19.62;;;18.12;;
57846;SDS011;43675;50.030;21.952;2022-08-19T11:32:06;24.18;;;18.15;;
57846;SDS011;43675;50.030;21.952;2022-08-19T11:34:33;20.57;;;18.62;;
57846;SDS011;43675;50.030;21.952;2022-08-19T11:37:00;21.20;;;19.40;;
57846;SDS011;43675;50.030;21.952;2022-08-19T11:39:26;20.72;;;19.02;;
57846;SDS011;43675;50.030;21.952;2022-08-19T11:41:54;20.65;;;18.95;;
57846;SDS011;43675;50.030;21.952;2022-08-19T11:44:22;19.90;;;18.32;;
57846;SDS011;43675;50.030;21.952;2022-08-19T11:46:48;19.87;;;18.12;;
57846;SDS011;43675;50.030;21.952;2022-08-19T11:49:15;19.80;;;18.12;;
57846;SDS011;43675;50.030;21.952;2022-08-19T11:51:42;19.48;;;18.02;;
57846;SDS011;43675;50.030;21.952;2022-08-19T11:54:09;18.45;;;17.00;;
57846;SDS011;43675;50.030;21.952;2022-08-19T11:56:36;18.55;;;16.95;;
57846;SDS011;43675;50.030;21.952;2022-08-19T11:59:03;19.67;;;18.02;;
57846;SDS011;43675;50.030;21.952;2022-08-19T12:01:28;19.50;;;18.02;;
57846;SDS011;43675;50.030;21.952;2022-08-19T12:03:55;19.75;;;18.15;;
57846;SDS011;43675;50.030;21.952;2022-08-19T12:06:23;19.70;;;18.00;;
57846;SDS011;43675;50.030;21.952;2022-08-19T12:08:51;19.00;;;17.50;;
57846;SDS011;43675;50.030;21.952;2022-08-19T12:11:24;19.62;;;18.02;;
57846;SDS011;43675;50.030;21.952;2022-08-19T12:13:57;19.65;;;18.07;;
57846;SDS011;43675;50.030;21.952;2022-08-19T12:16:24;18.92;;;17.60;;
57846;SDS011;43675;50.030;21.952;2022-08-19T12:18:52;19.27;;;17.75;;
57846;SDS011;43675;50.030;21.952;2022-08-19T12:21:20;19.02;;;17.52;;
57846;SDS011;43675;50.030;21.952;2022-08-19T12:23:48;19.17;;;17.80;;
57846;SDS011;43675;50.030;21.952;2022-08-19T12:26:15;19.12;;;17.45;;
57846;SDS011;43675;50.030;21.952;2022-08-19T12:28:41;19.27;;;17.60;;
57846;SDS011;43675;50.030;21.952;2022-08-19T12:31:14;18.37;;;16.87;;
57846;SDS011;43675;50.030;21.952;2022-08-19T12:33:40;18.50;;;17.00;;
57846;SDS011;43675;50.030;21.952;2022-08-19T12:36:08;18.95;;;17.17;;
57846;SDS011;43675;50.030;21.952;2022-08-19T12:38:35;18.73;;;17.27;;
57846;SDS011;43675;50.030;21.952;2022-08-19T12:41:03;19.00;;;17.30;;
57846;SDS011;43675;50.030;21.952;2022-08-19T12:43:29;18.23;;;16.73;;
57846;SDS011;43675;50.030;21.952;2022-08-19T12:45:54;19.15;;;17.65;;
57846;SDS011;43675;50.030;21.952;2022-08-19T12:48:20;19.35;;;17.73;;
57846;SDS011;43675;50.030;21.952;2022-08-19T12:50:45;18.50;;;17.30;;
57846;SDS011;43675;50.030;21.952;2022-08-19T12:53:11;18.00;;;16.80;;
57846;SDS011;43675;50.030;21.952;2022-08-19T12:55:37;19.10;;;17.32;;
57846;SDS011;43675;50.030;21.952;2022-08-19T12:58:03;19.32;;;17.67;;
57846;SDS011;43675;50.030;21.952;2022-08-19T13:00:29;18.27;;;17.00;;
57846;SDS011;43675;50.030;21.952;2022-08-19T13:02:55;18.87;;;17.57;;
57846;SDS011;43675;50.030;21.952;2022-08-19T13:05:23;19.00;;;17.42;;
57846;SDS011;43675;50.030;21.952;2022-08-19T13:07:51;19.07;;;17.45;;
57846;SDS011;43675;50.030;21.952;2022-08-19T13:10:27;18.80;;;17.40;;
57846;SDS011;43675;50.030;21.952;2022-08-19T13:13:05;18.70;;;17.05;;
57846;SDS011;43675;50.030;21.952;2022-08-19T13:15:33;18.00;;;16.70;;
57846;SDS011;43675;50.030;21.952;2022-08-19T13:18:03;19.00;;;17.40;;
57846;SDS011;43675;50.030;21.952;2022-08-19T13:20:28;18.62;;;17.12;;
57846;SDS011;43675;50.030;21.952;2022-08-19T13:22:55;19.30;;;17.95;;
57846;SDS011;43675;50.030;21.952;2022-08-19T13:25:21;24.70;;;17.98;;
57846;SDS011;43675;50.030;21.952;2022-08-19T13:27:47;18.45;;;17.15;;
57846;SDS011;43675;50.030;21.952;2022-08-19T13:30:21;18.85;;;17.32;;
57846;SDS011;43675;50.030;21.952;2022-08-19T13:32:47;18.17;;;16.77;;
57846;SDS011;43675;50.030;21.952;2022-08-19T13:35:12;19.07;;;17.57;;
57846;SDS011;43675;50.030;21.952;2022-08-19T13:37:38;18.87;;;17.42;;
57846;SDS011;43675;50.030;21.952;2022-08-19T13:40:04;19.23;;;17.57;;
57846;SDS011;43675;50.030;21.952;2022-08-19T13:42:31;19.55;;;17.52;;
57846;SDS011;43675;50.030;21.952;2022-08-19T13:44:56;18.42;;;16.87;;
57846;SDS011;43675;50.030;21.952;2022-08-19T13:47:22;18.82;;;17.35;;
57846;SDS011;43675;50.030;21.952;2022-08-19T13:49:48;18.85;;;17.12;;
57846;SDS011;43675;50.030;21.952;2022-08-19T13:52:13;19.10;;;17.50;;
57846;SDS011;43675;50.030;21.952;2022-08-19T13:54:39;19.57;;;17.23;;
57846;SDS011;43675;50.030;21.952;2022-08-19T13:57:04;18.73;;;17.35;;
57846;SDS011;43675;50.030;21.952;2022-08-19T13:59:30;19.02;;;17.27;;
57846;SDS011;43675;50.030;21.952;2022-08-19T14:01:59;18.70;;;17.25;;
57846;SDS011;43675;50.030;21.952;2022-08-19T14:04:26;18.67;;;17.27;;
57846;SDS011;43675;50.030;21.952;2022-08-19T14:06:51;18.70;;;17.07;;
57846;SDS011;43675;50.030;21.952;2022-08-19T14:09:24;19.07;;;17.37;;
57846;SDS011;43675;50.030;21.952;2022-08-19T14:11:57;18.42;;;17.10;;
57846;SDS011;43675;50.030;21.952;2022-08-19T14:14:22;18.90;;;17.43;;
57846;SDS011;43675;50.030;21.952;2022-08-19T14:16:48;19.40;;;17.90;;
57846;SDS011;43675;50.030;21.952;2022-08-19T14:19:14;19.60;;;18.10;;
57846;SDS011;43675;50.030;21.952;2022-08-19T14:21:40;19.45;;;17.92;;
57846;SDS011;43675;50.030;21.952;2022-08-19T14:24:06;19.10;;;17.67;;
57846;SDS011;43675;50.030;21.952;2022-08-19T14:26:32;19.32;;;17.92;;